Time;durP1;ratioP1;P1;durP2;ratioP2;P2;SDS_P1;SDS_P2;PMS_P1;PMS_P2;Temp;Humidity;BMP_temperature;BMP_pressure;BME280_temperature;BME280_humidity;BME280_pressure;Samples;Min_cycle;Max_cycle;Signal;HPM_P1;HPM_P2
2022/08/04 00:02:25;;;;;;;2.63;1.05;;;;;;;23.91;39.25;98897.44;5031712;28;20037;-61
2022/08/04 00:05:27;;;;;;;1.10;0.90;;;;;;;23.84;37.69;98900.06;5029601;28;20045;-61
2022/08/04 00:08:30;;;;;;;2.28;1.17;;;;;;;23.82;39.24;98896.75;5044563;28;20472;-60
2022/08/04 00:11:24;;;;;;;1.80;1.00;;;;;;;23.75;38.70;98896.69;5045804;28;20124;-62
2022/08/04 00:14:15;;;;;;;1.75;0.93;;;;;;;23.72;39.20;98894.38;5050189;28;20045;-60
2022/08/04 00:17:03;;;;;;;1.77;1.20;;;;;;;23.77;39.66;98896.47;5038087;28;20690;-61
2022/08/04 00:19:54;;;;;;;1.50;1.20;;;;;;;23.75;38.87;98891.31;5050230;28;20069;-61
2022/08/04 00:22:43;;;;;;;2.40;0.90;;;;;;;23.72;40.33;98897.06;5018074;28;20500;-60
2022/08/04 00:25:28;;;;;;;1.45;1.00;;;;;;;23.67;39.00;98890.59;5044711;28;20064;-62
2022/08/04 00:28:13;;;;;;;1.40;0.98;;;;;;;23.58;38.93;98892.56;5039274;28;20472;-60
2022/08/04 00:30:58;;;;;;;1.48;1.15;;;;;;;23.61;40.76;98887.69;5034064;28;20033;-61
2022/08/04 00:33:44;;;;;;;1.35;1.08;;;;;;;23.60;40.11;98898.56;5041195;28;20048;-62
2022/08/04 00:36:30;;;;;;;1.70;1.30;;;;;;;23.57;40.77;98897.06;5036402;28;20045;-61
2022/08/04 00:39:16;;;;;;;1.48;0.90;;;;;;;23.54;41.31;98893.94;5029364;28;20033;-60
2022/08/04 00:42:33;;;;;;;1.40;1.10;;;;;;;23.52;40.85;98904.00;5047123;28;20036;-61
2022/08/04 00:45:39;;;;;;;2.35;1.15;;;;;;;23.52;41.40;98906.69;5029294;28;20072;-61
2022/08/04 00:48:42;;;;;;;1.15;1.02;;;;;;;23.50;41.52;98897.00;5061795;28;20103;-61
2022/08/04 00:51:43;;;;;;;1.00;0.90;;;;;;;23.45;41.17;98901.25;5041270;28;20049;-63
2022/08/04 00:54:34;;;;;;;2.38;1.23;;;;;;;23.40;42.09;98898.31;5037894;28;20071;-61
2022/08/04 00:57:39;;;;;;;1.00;0.80;;;;;;;23.36;42.43;98901.31;5049314;28;20064;-60
2022/08/04 01:00:24;;;;;;;2.05;1.20;;;;;;;23.34;42.07;98898.00;5034210;28;20073;-61
2022/08/04 01:03:09;;;;;;;1.83;1.25;;;;;;;23.29;41.46;98902.25;5034783;28;20686;-60
2022/08/04 01:06:13;;;;;;;1.20;0.90;;;;;;;23.26;41.99;98898.94;5061698;28;20488;-61
2022/08/04 01:09:17;;;;;;;1.40;1.10;;;;;;;23.24;41.23;98892.94;5033544;28;20045;-60
2022/08/04 01:12:30;;;;;;;1.60;1.00;;;;;;;23.24;41.33;98889.44;5041032;28;20483;-60
2022/08/04 01:15:21;;;;;;;0.90;0.80;;;;;;;23.22;42.80;98894.16;5048473;28;20040;-61
2022/08/04 01:18:08;;;;;;;1.88;1.05;;;;;;;23.19;41.31;98899.84;5041236;28;20523;-61
2022/08/04 01:20:55;;;;;;;1.50;1.30;;;;;;;23.21;40.95;98882.63;5039075;28;20087;-61
2022/08/04 01:23:59;;;;;;;2.85;1.20;;;;;;;23.21;40.71;98885.28;5033908;28;20042;-62
2022/08/04 01:26:49;;;;;;;1.80;1.25;;;;;;;23.21;40.26;98884.44;5034162;28;20111;-61
2022/08/04 01:29:49;;;;;;;1.80;0.95;;;;;;;23.19;40.77;98889.16;5033285;28;20473;-62
2022/08/04 01:32:37;;;;;;;1.40;1.20;;;;;;;23.20;41.36;98882.81;5050442;28;20099;-60
2022/08/04 01:35:36;;;;;;;1.38;1.02;;;;;;;23.16;41.77;98884.19;5035190;28;20042;-61
2022/08/04 01:38:35;;;;;;;1.52;1.42;;;;;;;23.09;40.40;98878.75;5021192;28;20052;-60
2022/08/04 01:41:22;;;;;;;1.40;1.02;;;;;;;23.07;42.31;98884.28;5039853;28;20566;-61
2022/08/04 01:44:08;;;;;;;1.40;1.13;;;;;;;23.03;41.40;98882.19;5039319;28;20132;-61
2022/08/04 01:46:54;;;;;;;1.58;1.08;;;;;;;22.98;40.98;98878.19;5073547;28;20040;-61
2022/08/04 01:49:42;;;;;;;1.70;0.98;;;;;;;22.97;41.69;98879.22;5044957;28;20033;-61
2022/08/04 01:52:27;;;;;;;1.17;1.00;;;;;;;22.95;41.78;98870.56;5033727;28;20446;-61
2022/08/04 01:55:14;;;;;;;1.50;1.05;;;;;;;22.94;41.91;98868.06;5033967;28;20043;-61
2022/08/04 01:58:00;;;;;;;1.75;1.10;;;;;;;22.89;42.06;98874.81;5033629;28;20060;-61
2022/08/04 02:00:54;;;;;;;1.70;1.00;;;;;;;22.87;42.20;98875.97;5033768;28;20050;-59
2022/08/04 02:03:44;;;;;;;1.77;1.20;;;;;;;22.90;42.23;98883.63;5033299;28;20060;-59
2022/08/04 02:06:48;;;;;;;1.45;1.00;;;;;;;22.88;41.89;98883.00;5059827;28;20361;-59
2022/08/04 02:09:58;;;;;;;1.63;1.08;;;;;;;22.88;40.95;98883.00;5041196;28;20117;-59
2022/08/04 02:13:20;;;;;;;1.10;0.93;;;;;;;22.88;41.37;98872.31;5043200;28;20098;-60
2022/08/04 02:16:23;;;;;;;1.10;0.90;;;;;;;22.84;44.31;98873.69;5032559;28;20135;-60
2022/08/04 02:19:25;;;;;;;1.95;1.02;;;;;;;22.83;42.29;98872.84;5033966;28;20041;-60
2022/08/04 02:22:17;;;;;;;1.42;0.90;;;;;;;22.75;42.45;98876.44;5046121;28;20064;-61
2022/08/04 02:25:07;;;;;;;1.35;0.90;;;;;;;22.71;42.41;98869.81;5033213;28;20164;-61
2022/08/04 02:28:05;;;;;;;2.45;1.25;;;;;;;22.69;42.39;98873.66;5032175;28;20079;-60
2022/08/04 02:30:50;;;;;;;1.70;1.25;;;;;;;22.63;42.04;98868.06;5041307;28;20040;-59
2022/08/04 02:33:43;;;;;;;2.08;1.23;;;;;;;22.61;41.50;98874.56;5064290;28;20465;-59
2022/08/04 02:36:37;;;;;;;1.73;1.05;;;;;;;22.59;42.95;98877.38;5032383;28;20223;-60
2022/08/04 02:39:22;;;;;;;2.03;1.10;;;;;;;22.58;42.89;98872.22;5031910;28;20116;-60
2022/08/04 02:42:07;;;;;;;1.55;1.17;;;;;;;22.59;43.15;98865.88;5039908;28;20061;-61
2022/08/04 02:44:56;;;;;;;1.42;1.00;;;;;;;22.49;42.75;98872.31;5029115;28;20088;-60
2022/08/04 02:47:41;;;;;;;2.58;1.10;;;;;;;22.46;42.96;98867.31;5050123;28;20068;-62
2022/08/04 02:50:29;;;;;;;1.70;1.02;;;;;;;22.42;43.15;98876.72;5050810;28;20056;-61
2022/08/04 02:53:17;;;;;;;1.95;1.20;;;;;;;22.34;42.81;98871.44;5031806;28;20038;-60
2022/08/04 02:56:02;;;;;;;1.52;1.10;;;;;;;22.41;42.74;98875.03;5031564;28;20064;-61
2022/08/04 02:59:10;;;;;;;2.55;1.40;;;;;;;22.35;43.43;98862.41;5032604;28;20061;-60
2022/08/04 03:01:56;;;;;;;2.05;1.42;;;;;;;22.32;43.35;98871.63;5032930;28;20065;-61
2022/08/04 03:04:59;;;;;;;4.60;1.38;;;;;;;22.24;42.85;98869.03;5032531;28;20485;-61
2022/08/04 03:07:47;;;;;;;2.10;1.52;;;;;;;22.20;43.88;98870.38;5058875;28;20029;-60
2022/08/04 03:10:44;;;;;;;2.00;1.50;;;;;;;22.02;43.65;98867.00;5059796;28;20053;-60
2022/08/04 03:13:52;;;;;;;2.35;1.48;;;;;;;21.98;43.22;98868.38;5031978;28;20072;-62
2022/08/04 03:16:45;;;;;;;3.00;1.50;;;;;;;21.97;43.81;98864.03;5032249;28;20033;-61
2022/08/04 03:19:49;;;;;;;2.22;1.40;;;;;;;21.85;43.90;98865.47;5032135;28;20465;-61
2022/08/04 03:22:52;;;;;;;4.25;1.90;;;;;;;21.88;44.99;98865.13;5024672;28;20067;-61
2022/08/04 03:25:56;;;;;;;2.45;1.58;;;;;;;21.81;44.94;98864.13;5031959;28;20072;-61
2022/08/04 03:29:02;;;;;;;2.08;1.58;;;;;;;21.82;44.88;98861.28;5031884;28;20067;-61
2022/08/04 03:32:08;;;;;;;2.28;1.50;;;;;;;21.68;45.55;98865.53;5031696;28;20038;-60
2022/08/04 03:35:12;;;;;;;3.65;1.48;;;;;;;21.67;45.15;98863.88;5031867;28;20050;-61
2022/08/04 03:38:04;;;;;;;2.88;1.60;;;;;;;21.64;46.04;98864.22;5031690;28;20065;-60
2022/08/04 03:41:24;;;;;;;2.25;1.70;;;;;;;21.69;46.50;98866.38;5031915;28;20109;-60
2022/08/04 03:44:43;;;;;;;2.42;1.73;;;;;;;21.67;45.90;98874.53;5031656;28;20080;-61
2022/08/04 03:47:54;;;;;;;2.20;1.65;;;;;;;21.68;46.35;98868.19;5046240;28;20037;-61
2022/08/04 03:54:25;;;;;;;2.60;1.83;;;;;;;21.63;46.59;98874.06;5034000;28;20168;-61
2022/08/04 03:57:29;;;;;;;3.40;1.85;;;;;;;21.72;46.62;98872.19;5041007;28;20464;-61
2022/08/04 04:00:20;;;;;;;3.42;1.65;;;;;;;21.71;46.98;98867.84;5031498;28;20040;-60
2022/08/04 04:03:53;;;;;;;2.90;1.92;;;;;;;21.77;46.38;98871.66;5031804;28;20099;-60
2022/08/04 04:06:49;;;;;;;3.13;2.17;;;;;;;21.89;46.09;98877.44;5034261;28;20132;-60
2022/08/04 04:10:12;;;;;;;3.25;1.92;;;;;;;21.88;46.29;98865.94;5031283;28;20045;-60
2022/08/04 04:13:13;;;;;;;2.97;2.00;;;;;;;21.97;46.38;98868.53;5057649;28;20075;-62
2022/08/04 04:16:24;;;;;;;2.95;1.80;;;;;;;21.90;46.70;98871.91;5035016;28;20819;-62
2022/08/04 04:19:21;;;;;;;1.90;1.70;;;;;;;22.01;46.52;98869.84;5031396;28;20052;-62
2022/08/04 04:22:47;;;;;;;3.58;1.83;;;;;;;22.05;46.50;98881.00;5039784;28;20435;-61
2022/08/04 04:26:14;;;;;;;2.55;1.70;;;;;;;22.12;46.69;98881.94;5033669;28;20422;-62
2022/08/04 04:29:13;;;;;;;3.53;1.77;;;;;;;22.11;46.77;98877.63;5015838;28;20033;-60
2022/08/04 04:32:25;;;;;;;2.78;2.00;;;;;;;22.13;46.84;98880.94;5034252;28;20055;-60
2022/08/04 04:35:25;;;;;;;3.50;2.15;;;;;;;22.21;46.78;98882.72;5044546;28;20107;-60
2022/08/04 04:38:24;;;;;;;4.27;2.30;;;;;;;22.27;46.88;98884.66;5035176;28;20095;-60
2022/08/04 04:41:15;;;;;;;3.15;1.70;;;;;;;22.28;47.19;98884.50;5036057;28;20076;-60
2022/08/04 04:44:20;;;;;;;2.43;1.93;;;;;;;22.25;47.48;98892.00;5038151;28;20045;-60
2022/08/04 04:47:20;;;;;;;2.67;2.00;;;;;;;22.32;47.61;98892.97;5047987;28;20037;-62
2022/08/04 04:50:17;;;;;;;3.38;1.88;;;;;;;22.24;47.75;98896.53;5047271;28;20440;-62
2022/08/04 04:53:12;;;;;;;3.50;1.90;;;;;;;22.26;48.05;98901.69;5047878;28;20040;-60
2022/08/04 04:56:08;;;;;;;3.55;2.20;;;;;;;22.31;47.58;98911.81;5033630;28;20057;-60
2022/08/04 04:58:55;;;;;;;5.72;2.00;;;;;;;22.40;48.09;98900.91;5034740;28;20473;-60
2022/08/04 05:01:52;;;;;;;5.60;2.03;;;;;;;22.48;47.73;98909.84;5035959;28;20030;-59
2022/08/04 05:05:11;;;;;;;2.90;2.00;;;;;;;22.43;47.85;98906.88;5066983;28;20500;-60
2022/08/04 05:08:30;;;;;;;2.45;1.77;;;;;;;22.50;48.14;98906.00;5033704;28;20091;-60
2022/08/04 05:11:17;;;;;;;4.47;2.22;;;;;;;22.54;48.13;98903.78;5034492;28;20040;-60
2022/08/04 05:14:08;;;;;;;3.80;2.28;;;;;;;22.63;47.69;98910.75;5034493;28;20092;-59
2022/08/04 05:16:55;;;;;;;3.88;1.92;;;;;;;22.54;48.15;98911.78;5034625;28;20053;-60
2022/08/04 05:20:00;;;;;;;2.28;1.83;;;;;;;22.68;47.88;98907.53;5052432;28;20037;-59
2022/08/04 05:22:56;;;;;;;2.72;2.03;;;;;;;22.92;47.49;98907.47;5052667;28;20048;-59
2022/08/04 05:25:56;;;;;;;3.15;2.03;;;;;;;22.92;47.50;98907.47;5054238;28;20047;-59
2022/08/04 05:28:50;;;;;;;3.17;2.15;;;;;;;23.04;47.20;98913.19;5043812;28;20037;-59
2022/08/04 05:31:40;;;;;;;2.90;2.05;;;;;;;23.04;47.29;98910.53;5034189;28;20168;-59
2022/08/04 05:34:32;;;;;;;2.72;2.05;;;;;;;22.96;47.56;98914.97;5034233;28;20042;-60
2022/08/04 05:37:21;;;;;;;3.22;2.30;;;;;;;22.99;47.62;98916.44;5039207;28;20052;-61
2022/08/04 05:40:08;;;;;;;2.75;2.03;;;;;;;22.94;47.73;98922.31;5044129;28;20465;-60
2022/08/04 05:42:55;;;;;;;3.50;2.40;;;;;;;23.02;47.75;98916.06;5033237;28;20041;-60
2022/08/04 05:45:41;;;;;;;5.88;2.42;;;;;;;22.93;48.38;98922.50;5036675;28;20034;-60
2022/08/04 05:48:27;;;;;;;6.75;3.25;;;;;;;22.81;48.81;98927.44;5047015;28;20063;-60
2022/08/04 05:51:14;;;;;;;2.78;2.38;;;;;;;22.85;48.53;98926.91;5036722;28;20083;-60
2022/08/04 05:54:00;;;;;;;5.90;2.83;;;;;;;23.07;48.30;98923.53;5032790;28;20069;-60
2022/08/04 05:56:46;;;;;;;6.38;3.17;;;;;;;23.23;48.45;98926.00;5034090;28;20045;-60
2022/08/04 05:59:33;;;;;;;2.90;2.13;;;;;;;23.32;48.36;98926.75;5033394;28;20041;-61
2022/08/04 06:02:19;;;;;;;5.15;2.67;;;;;;;23.35;48.35;98921.06;5060203;28;20037;-60
2022/08/04 06:05:06;;;;;;;5.13;2.75;;;;;;;23.42;48.14;98928.34;5033723;28;20042;-60
2022/08/04 06:07:51;;;;;;;3.95;2.40;;;;;;;23.58;48.07;98921.97;5060326;28;20033;-61
2022/08/04 06:10:38;;;;;;;3.65;2.30;;;;;;;23.64;47.52;98926.56;5032632;28;20095;-58
2022/08/04 06:13:36;;;;;;;3.80;2.22;;;;;;;23.64;47.76;98929.25;5033318;28;20041;-63
2022/08/04 06:16:24;;;;;;;6.20;2.65;;;;;;;23.87;47.30;98928.28;5033313;28;20191;-59
2022/08/04 06:19:12;;;;;;;3.60;2.50;;;;;;;24.05;46.54;98922.50;5034481;28;20396;-59
2022/08/04 06:21:58;;;;;;;4.43;3.00;;;;;;;24.29;46.25;98928.53;5059904;28;20037;-60
2022/08/04 06:24:46;;;;;;;3.97;2.92;;;;;;;24.49;45.96;98933.25;5033059;28;20068;-60
2022/08/04 06:27:32;;;;;;;5.25;2.83;;;;;;;24.74;45.51;98938.19;5033641;28;20092;-60
2022/08/04 06:30:18;;;;;;;5.00;2.25;;;;;;;24.64;45.70;98937.69;5033227;28;20108;-61
2022/08/04 06:33:12;;;;;;;4.78;2.20;;;;;;;24.78;45.27;98941.28;5042822;28;20044;-59
2022/08/04 06:35:59;;;;;;;2.92;2.30;;;;;;;24.66;44.87;98931.09;5035888;28;20092;-58
2022/08/04 06:38:44;;;;;;;2.88;2.40;;;;;;;24.89;45.05;98935.41;5036161;28;20040;-60
2022/08/04 06:41:30;;;;;;;2.55;2.15;;;;;;;25.00;44.40;98935.91;5032606;28;20041;-59
2022/08/04 06:44:15;;;;;;;3.35;2.13;;;;;;;25.13;44.20;98937.88;5032073;28;20049;-60
2022/08/04 06:47:02;;;;;;;4.38;2.20;;;;;;;25.45;43.46;98943.59;5046014;28;20061;-62
2022/08/04 06:49:52;;;;;;;4.35;2.20;;;;;;;25.33;43.88;98936.13;5043602;28;20103;-59
2022/08/04 06:52:38;;;;;;;4.50;1.83;;;;;;;25.52;43.80;98939.13;5032357;28;20080;-59
2022/08/04 06:55:24;;;;;;;6.05;2.45;;;;;;;25.91;42.91;98928.75;5032727;28;20038;-59
2022/08/04 06:58:09;;;;;;;3.00;2.10;;;;;;;26.28;42.37;98935.63;5047490;28;20045;-59
2022/08/04 07:01:00;;;;;;;2.55;2.00;;;;;;;26.29;41.40;98926.56;5039936;28;20049;-60
2022/08/04 07:03:45;;;;;;;3.88;2.08;;;;;;;26.16;41.98;98922.81;5039580;28;20079;-60
2022/08/04 07:06:32;;;;;;;5.85;2.40;;;;;;;26.23;41.74;98925.50;5032660;28;20603;-61
2022/08/04 07:09:17;;;;;;;2.60;1.80;;;;;;;26.63;40.78;98930.13;5032399;28;20037;-60
2022/08/04 07:12:02;;;;;;;2.45;2.00;;;;;;;26.74;40.37;98923.28;5033193;28;20045;-60
2022/08/04 07:14:48;;;;;;;4.05;1.77;;;;;;;26.88;40.26;98931.34;5035225;28;20041;-59
2022/08/04 07:17:36;;;;;;;2.58;1.70;;;;;;;26.66;40.37;98932.41;5048999;28;20060;-63
2022/08/04 07:20:21;;;;;;;5.68;2.67;;;;;;;26.71;40.20;98931.78;5030455;28;20464;-60
2022/08/04 07:23:07;;;;;;;5.38;2.28;;;;;;;27.03;40.06;98926.59;5032191;28;20040;-59
2022/08/04 07:25:55;;;;;;;6.65;3.88;;;;;;;27.00;39.24;98926.16;5043667;28;20041;-59
2022/08/04 07:28:40;;;;;;;5.28;2.08;;;;;;;26.98;38.14;98920.97;5037873;28;20060;-61
2022/08/04 07:31:25;;;;;;;4.05;2.33;;;;;;;26.95;38.59;98921.41;5031785;28;20090;-60
2022/08/04 07:34:10;;;;;;;4.32;2.28;;;;;;;27.74;37.58;98917.91;5058664;28;20114;-61
2022/08/04 07:36:58;;;;;;;5.32;1.98;;;;;;;27.50;37.98;98924.81;5030589;28;20485;-60
2022/08/04 07:39:43;;;;;;;4.40;2.20;;;;;;;27.51;37.81;98923.78;5030914;28;20095;-60
2022/08/04 07:42:28;;;;;;;3.17;2.35;;;;;;;27.62;38.06;98935.72;5038733;28;20365;-61
2022/08/04 07:45:19;;;;;;;3.45;1.95;;;;;;;27.96;36.77;98928.34;5020121;28;20053;-60
2022/08/04 07:48:05;;;;;;;4.57;1.92;;;;;;;27.99;36.78;98927.09;5065598;28;20060;-59
2022/08/04 07:50:52;;;;;;;2.85;2.00;;;;;;;28.23;36.65;98924.66;5051237;28;20119;-60
2022/08/04 07:53:39;;;;;;;2.40;1.70;;;;;;;28.44;36.19;98919.97;5039102;28;20476;-61
2022/08/04 07:56:25;;;;;;;2.40;1.70;;;;;;;28.34;35.62;98929.38;5046093;28;20269;-63
2022/08/04 07:59:10;;;;;;;3.30;2.05;;;;;;;28.97;34.84;98921.41;5033593;28;20388;-60
2022/08/04 08:01:59;;;;;;;6.32;2.00;;;;;;;29.33;34.70;98927.03;5038667;28;20057;-60
2022/08/04 08:04:46;;;;;;;3.33;2.08;;;;;;;29.07;34.88;98933.56;5047366;28;20040;-60
2022/08/04 08:07:31;;;;;;;3.35;2.28;;;;;;;29.80;33.34;98927.53;5021574;28;20091;-62
2022/08/04 08:10:16;;;;;;;5.53;2.10;;;;;;;29.55;33.71;98925.75;5027544;28;20086;-60
2022/08/04 08:13:02;;;;;;;3.30;1.67;;;;;;;29.61;33.63;98930.25;5016899;28;20040;-61
2022/08/04 08:15:47;;;;;;;2.70;2.10;;;;;;;30.36;33.48;98928.19;5016386;28;20034;-61
2022/08/04 08:18:32;;;;;;;5.13;2.30;;;;;;;30.20;32.97;98928.88;5043748;28;20507;-60
2022/08/04 08:21:21;;;;;;;2.92;2.20;;;;;;;29.94;33.71;98928.16;5030480;28;20037;-61
2022/08/04 08:24:07;;;;;;;2.80;1.90;;;;;;;30.21;33.55;98931.34;5032278;28;20048;-60
2022/08/04 08:26:52;;;;;;;4.22;1.80;;;;;;;30.33;33.10;98934.06;5030908;28;20030;-61
2022/08/04 08:29:39;;;;;;;7.72;3.03;;;;;;;30.19;33.46;98938.00;5030964;28;20045;-61
2022/08/04 08:32:26;;;;;;;4.78;2.30;;;;;;;30.19;33.39;98929.91;5030350;28;20167;-61
2022/08/04 08:35:11;;;;;;;3.72;1.92;;;;;;;31.53;31.51;98927.84;5030978;28;20091;-61
2022/08/04 08:38:02;;;;;;;2.70;1.80;;;;;;;31.94;30.84;98935.94;5016440;28;20059;-61
2022/08/04 08:40:55;;;;;;;3.28;2.10;;;;;;;31.50;31.11;98925.63;5058208;28;20045;-62
2022/08/04 08:44:17;;;;;;;2.50;1.88;;;;;;;32.69;29.70;98925.00;5030988;28;20473;-62
2022/08/04 08:47:28;;;;;;;2.30;1.85;;;;;;;32.85;28.76;98927.13;5044087;28;20333;-63
2022/08/04 08:50:31;;;;;;;2.20;1.70;;;;;;;32.77;29.14;98922.97;5031124;28;20493;-61
2022/08/04 08:53:37;;;;;;;2.88;2.00;;;;;;;31.73;30.15;98940.94;5030108;28;20034;-60
2022/08/04 08:56:38;;;;;;;2.20;1.67;;;;;;;32.69;29.03;98927.72;5030865;28;20125;-60
2022/08/04 08:59:56;;;;;;;2.35;1.77;;;;;;;33.45;28.54;98926.56;5030714;28;20038;-60
2022/08/04 09:03:22;;;;;;;2.97;1.60;;;;;;;33.60;27.57;98923.22;5044399;28;20100;-61
2022/08/04 09:06:19;;;;;;;4.03;1.58;;;;;;;32.65;28.63;98925.75;5042349;28;20480;-61
2022/08/04 09:09:39;;;;;;;2.58;1.40;;;;;;;32.26;28.62;98937.31;5009086;28;20041;-60
2022/08/04 09:12:40;;;;;;;3.83;1.88;;;;;;;32.38;27.74;98931.81;5035041;28;20164;-60
2022/08/04 09:15:52;;;;;;;2.13;1.58;;;;;;;32.78;27.34;98924.59;5031267;28;20071;-61
2022/08/04 09:19:01;;;;;;;2.08;1.60;;;;;;;33.61;26.60;98927.56;5034529;28;20037;-61
2022/08/04 09:22:01;;;;;;;1.88;1.35;;;;;;;33.69;26.83;98929.06;5052659;28;20413;-60
2022/08/04 09:24:52;;;;;;;;;;;;;;;34.03;25.89;98928.84;5050530;28;20048;-61
2022/08/04 09:27:47;;;;;;;3.83;1.50;;;;;;;34.61;25.28;98924.72;5038248;28;20369;-62
2022/08/04 09:30:53;;;;;;;5.57;1.98;;;;;;;34.63;25.95;98925.28;5043886;28;20044;-61
2022/08/04 09:34:06;;;;;;;2.67;1.67;;;;;;;34.65;25.27;98923.13;5040914;28;20033;-61
2022/08/04 09:37:11;;;;;;;2.00;1.50;;;;;;;35.09;25.05;98911.13;5046313;28;20049;-62
2022/08/04 09:40:19;;;;;;;4.57;1.48;;;;;;;35.12;26.39;98907.88;5033309;28;20400;-62
2022/08/04 09:43:25;;;;;;;3.13;1.42;;;;;;;35.23;25.17;98916.97;5023592;28;20038;-60
2022/08/04 09:46:36;;;;;;;3.17;1.70;;;;;;;35.80;24.56;98912.78;5035495;28;20464;-60
2022/08/04 09:49:24;;;;;;;5.13;1.40;;;;;;;35.69;24.25;98917.38;5044790;28;20040;-61
2022/08/04 09:52:41;;;;;;;2.30;1.38;;;;;;;35.78;24.75;98906.81;5034022;28;20053;-62
2022/08/04 09:55:45;;;;;;;4.28;1.75;;;;;;;35.06;25.47;98910.88;5032889;28;20041;-61
2022/08/04 09:58:57;;;;;;;4.10;1.67;;;;;;;35.47;24.90;98910.22;5033533;28;20530;-61
2022/08/04 10:01:43;;;;;;;2.42;1.10;;;;;;;36.95;22.58;98906.19;5043083;28;20079;-60
2022/08/04 10:04:31;;;;;;;3.72;1.27;;;;;;;36.28;22.72;98914.50;5033878;28;20044;-59
2022/08/04 10:07:44;;;;;;;2.83;1.30;;;;;;;36.46;24.36;98903.00;5033509;28;20041;-59
2022/08/04 10:10:40;;;;;;;2.13;1.60;;;;;;;36.42;22.77;98903.84;5035224;28;20107;-59
2022/08/04 10:13:51;;;;;;;2.58;1.35;;;;;;;36.93;22.42;98899.41;5024873;28;20037;-59
2022/08/04 10:16:48;;;;;;;2.65;1.38;;;;;;;38.01;22.35;98894.50;5032277;28;20049;-59
2022/08/04 10:19:37;;;;;;;1.90;1.17;;;;;;;38.19;21.62;98895.72;5042889;28;20041;-59
2022/08/04 10:22:32;;;;;;;1.45;1.23;;;;;;;37.72;23.79;98889.78;5032922;28;20396;-59
2022/08/04 10:25:25;;;;;;;1.98;1.13;;;;;;;37.08;23.10;98893.06;5038844;28;20044;-60
2022/08/04 10:28:15;;;;;;;1.77;1.20;;;;;;;37.67;21.59;98898.78;5049144;28;20061;-59
2022/08/04 10:31:08;;;;;;;2.10;1.25;;;;;;;38.39;22.05;98888.44;5040663;28;20029;-59
2022/08/04 10:34:09;;;;;;;2.45;1.10;;;;;;;38.34;21.45;98885.75;5034186;28;20049;-58
2022/08/04 10:37:04;;;;;;;1.90;1.10;;;;;;;37.79;21.33;98878.53;5032705;28;20037;-58
2022/08/04 10:43:19;;;;;;;2.38;0.98;;;;;;;36.63;21.18;98882.81;5032568;28;20037;-59
2022/08/04 10:46:06;;;;;;;1.77;0.98;;;;;;;37.98;20.38;98870.44;5037909;28;20037;-59
2022/08/04 10:49:03;;;;;;;1.77;0.82;;;;;;;39.54;19.99;98870.69;5051453;28;20045;-59
2022/08/04 10:51:53;;;;;;;1.90;1.30;;;;;;;38.60;20.34;98860.06;5032711;28;20037;-59
2022/08/04 10:54:47;;;;;;;3.08;1.25;;;;;;;38.47;20.18;98861.59;5032774;28;20047;-59
2022/08/04 10:57:50;;;;;;;1.55;0.90;;;;;;;38.06;20.51;98864.38;5032269;28;20041;-59
2022/08/04 11:00:38;;;;;;;3.85;1.30;;;;;;;38.05;20.15;98861.94;5031384;28;20116;-59
2022/08/04 11:03:30;;;;;;;4.82;1.23;;;;;;;37.71;20.54;98861.66;5032943;28;20045;-60
2022/08/04 11:06:15;;;;;;;1.50;1.00;;;;;;;37.87;21.33;98866.19;5032216;28;20040;-59
2022/08/04 11:09:03;;;;;;;2.42;1.10;;;;;;;38.63;19.77;98854.03;5044914;28;20107;-60
2022/08/04 11:12:20;;;;;;;2.60;1.00;;;;;;;39.24;19.65;98859.88;5034322;28;20045;-61
2022/08/04 11:15:24;;;;;;;2.22;0.88;;;;;;;38.92;20.45;98858.63;5033063;28;20059;-60
2022/08/04 11:18:22;;;;;;;2.90;1.00;;;;;;;40.56;18.32;98865.78;5032294;28;20052;-61
2022/08/04 11:21:24;;;;;;;2.42;1.30;;;;;;;38.26;19.75;98862.59;5033444;28;20048;-60
2022/08/04 11:24:27;;;;;;;2.08;0.90;;;;;;;38.66;20.18;98853.44;5032066;28;20037;-60
2022/08/04 11:27:24;;;;;;;2.88;1.02;;;;;;;40.35;16.99;98848.88;5038557;28;20437;-60
2022/08/04 11:30:11;;;;;;;1.48;0.88;;;;;;;40.55;18.71;98855.09;5033778;28;20068;-61
2022/08/04 11:33:26;;;;;;;1.17;0.80;;;;;;;39.72;18.04;98858.13;5030949;28;20052;-60
2022/08/04 11:36:33;;;;;;;1.00;0.73;;;;;;;40.25;16.82;98856.16;5037350;28;20061;-60
2022/08/04 11:39:36;;;;;;;1.00;0.73;;;;;;;40.12;16.45;98846.81;5029980;28;20037;-60
2022/08/04 11:42:27;;;;;;;1.85;0.82;;;;;;;40.31;18.75;98847.84;5031789;28;20046;-60
2022/08/04 11:45:16;;;;;;;1.92;0.82;;;;;;;39.92;18.58;98856.97;5030653;28;20081;-60
2022/08/04 11:48:15;;;;;;;1.27;0.93;;;;;;;39.81;19.13;98839.06;5047271;28;20067;-60
2022/08/04 11:51:04;;;;;;;1.30;0.90;;;;;;;40.08;16.62;98839.47;5034939;28;20327;-60
2022/08/04 11:53:50;;;;;;;1.17;0.80;;;;;;;40.65;17.34;98841.19;5032278;28;20034;-60
2022/08/04 11:56:34;;;;;;;0.90;0.80;;;;;;;41.92;15.16;98835.41;5040362;28;20559;-60
2022/08/04 11:59:22;;;;;;;1.52;0.90;;;;;;;40.31;15.06;98843.19;5046173;28;20047;-60
2022/08/04 12:02:36;;;;;;;2.78;1.00;;;;;;;38.72;16.15;98835.88;5030464;28;20037;-60
2022/08/04 12:05:29;;;;;;;2.08;0.90;;;;;;;39.51;17.38;98832.94;5031599;28;20087;-60
2022/08/04 12:08:46;;;;;;;1.23;0.80;;;;;;;40.15;15.22;98831.69;5029891;28;20369;-60
2022/08/04 12:11:41;;;;;;;1.33;0.93;;;;;;;40.80;15.86;98825.53;5030188;28;20084;-59
2022/08/04 12:14:46;;;;;;;1.90;1.20;;;;;;;39.65;15.90;98820.16;5031336;28;20046;-59
2022/08/04 12:17:41;;;;;;;0.73;0.55;;;;;;;39.59;17.88;98818.59;5030029;28;20052;-60
2022/08/04 12:20:28;;;;;;;1.27;0.82;;;;;;;39.83;15.50;98820.41;5031417;28;20038;-60
2022/08/04 12:23:31;;;;;;;1.08;0.75;;;;;;;40.07;15.29;98824.16;5031198;28;20039;-59
2022/08/04 12:26:48;;;;;;;1.30;0.80;;;;;;;39.09;16.22;98817.06;5030872;28;20127;-60
2022/08/04 12:29:36;;;;;;;0.95;0.70;;;;;;;40.07;14.79;98821.41;5030817;28;20049;-60
2022/08/04 12:32:35;;;;;;;0.95;0.70;;;;;;;40.56;16.10;98810.91;5043823;28;20040;-59
2022/08/04 12:35:21;;;;;;;;;;;;;;;41.43;15.92;98805.78;5031562;28;20053;-60
2022/08/04 12:38:10;;;;;;;1.40;0.90;;;;;;;40.87;14.09;98807.53;5031288;28;20414;-59
2022/08/04 12:40:58;;;;;;;2.15;0.70;;;;;;;40.26;17.31;98810.38;5015845;28;20120;-59
2022/08/04 12:43:46;;;;;;;0.90;0.60;;;;;;;41.18;17.03;98808.81;5030590;28;20469;-61
2022/08/04 12:46:32;;;;;;;0.90;0.68;;;;;;;42.10;15.64;98806.06;5039026;28;20056;-60
2022/08/04 12:49:20;;;;;;;1.27;0.80;;;;;;;41.07;14.73;98805.47;5044039;28;20124;-59
2022/08/04 12:52:06;;;;;;;1.55;0.88;;;;;;;40.14;16.67;98817.16;5044995;28;20388;-59
2022/08/04 12:54:54;;;;;;;1.10;0.68;;;;;;;39.48;15.90;98806.16;5035083;28;20071;-60
2022/08/04 12:57:40;;;;;;;1.45;0.70;;;;;;;40.02;17.14;98803.91;5034699;28;20084;-59
2022/08/04 13:00:34;;;;;;;1.20;0.73;;;;;;;41.06;16.41;98790.16;5042644;28;20484;-60
2022/08/04 13:03:22;;;;;;;1.13;0.80;;;;;;;40.82;16.11;98787.63;5040500;28;20123;-60
2022/08/04 13:06:11;;;;;;;1.13;0.75;;;;;;;41.07;16.15;98783.53;5046573;28;20121;-60
2022/08/04 13:09:03;;;;;;;2.08;1.27;;;;;;;40.35;15.72;98791.28;5041002;28;20070;-59
2022/08/04 13:11:52;;;;;;;2.58;1.00;;;;;;;39.34;16.76;98781.44;5040792;28;20045;-59
2022/08/04 13:14:43;;;;;;;2.30;0.90;;;;;;;39.34;18.82;98778.69;5043192;28;20048;-59
2022/08/04 13:17:44;;;;;;;1.65;1.08;;;;;;;39.41;18.25;98774.50;5034488;28;20047;-60
2022/08/04 13:20:35;;;;;;;1.30;0.80;;;;;;;40.68;16.97;98757.44;5046409;28;20041;-60
2022/08/04 13:23:21;;;;;;;1.60;0.80;;;;;;;39.71;17.17;98771.56;5035426;28;20054;-59
2022/08/04 13:26:06;;;;;;;4.22;1.00;;;;;;;39.75;19.12;98771.78;5042764;28;20056;-59
2022/08/04 13:28:53;;;;;;;3.53;0.90;;;;;;;40.84;17.06;98766.19;5034380;28;20033;-59
2022/08/04 13:31:43;;;;;;;1.83;0.90;;;;;;;40.36;17.15;98770.97;5047243;28;20038;-60
2022/08/04 13:34:29;;;;;;;3.22;1.10;;;;;;;39.41;17.55;98765.47;5033782;28;20041;-59
2022/08/04 13:37:14;;;;;;;2.92;1.10;;;;;;;39.95;19.08;98764.31;5043935;28;20103;-60
2022/08/04 13:40:03;;;;;;;0.90;0.70;;;;;;;40.62;18.09;98763.06;5047234;28;20254;-59
2022/08/04 13:42:51;;;;;;;1.20;0.80;;;;;;;40.42;18.75;98756.03;5033836;28;20053;-60
2022/08/04 13:45:39;;;;;;;0.80;0.80;;;;;;;39.09;19.53;98759.59;5034394;28;20037;-59
2022/08/04 13:48:24;;;;;;;1.47;0.90;;;;;;;39.62;18.50;98759.66;5048257;28;20045;-60
2022/08/04 13:51:10;;;;;;;2.97;1.00;;;;;;;39.54;18.67;98755.66;5037449;28;20538;-60